»·PEaware :: N626MT KSAN-KPSP

N626MT :: KSAN-KPSP

FLIGHT INFORMATION

Flight Status: Arrived
Operator: Privately registered:
United States
More flights under this callsign
Pilot: Dave M. (4986)
Aircraft: SOCATA TBM-900
(TBM9)
More flights by this aircraft type
Origin: KSAN San Diego Intl-Lindbergh
United States
Destination: KPSP Palm Springs Intl
United States
More flights between these airports :: More routes between these airports
Route: +PGY JLI V208 TRM
File this flight plan on PilotEdge
Remarks:
Altitude:
(Current/Filed)
15,000ft
Speed:
(Current/Filed)
270kts
Departed: 29-Dec-19 11:24 AM
Arrived: 29-Dec-19 12:01 PM
Distance/Time
Traveled:
74nm/0:36
Distance/Time
To Go:
Arrived

Flight Plot

Page will automatically refresh every two minutes.

Flight plan parsing failed; only flown route is shown


Map Options




Map Legend


Flown Route
Filed Route
Departure Airport
Arrival Airport
Navaid (VOR, NDB)
Fix

Horizontal Profiles

Position Reports

Time Latitude Longitude Heading Altitude Ground
Speed
29-Dec-19 11:06 32.732089 -117.176568 194 26ft 0kts
29-Dec-19 11:07 32.732089 -117.176568 194 26ft 0kts
29-Dec-19 11:08 32.732089 -117.176568 194 26ft 0kts
29-Dec-19 11:09 32.732089 -117.176568 194 26ft 0kts
29-Dec-19 11:10 32.732088 -117.176569 194 26ft 0kts
29-Dec-19 11:11 32.732088 -117.176569 194 26ft 0kts
29-Dec-19 11:12 32.732088 -117.176569 194 26ft 0kts
29-Dec-19 11:13 32.732088 -117.176569 194 26ft 0kts
29-Dec-19 11:14 32.732088 -117.176569 194 26ft 0kts
29-Dec-19 11:15 32.732088 -117.176569 194 26ft 0kts
29-Dec-19 11:16 32.732088 -117.176569 194 26ft 0kts
29-Dec-19 11:17 32.732088 -117.176569 194 26ft 0kts
29-Dec-19 11:18 32.732089 -117.176569 194 26ft 0kts
29-Dec-19 11:19 32.732065 -117.176576 194 26ft 0kts
29-Dec-19 11:20 32.732065 -117.176576 194 26ft 0kts
29-Dec-19 11:21 32.731151 -117.175743 97 25ft 4kts
29-Dec-19 11:22 32.730857 -117.175309 185 26ft 2kts
29-Dec-19 11:23 32.731367 -117.180669 285 16ft 95kts
29-Dec-19 11:24 32.741173 -117.222649 286 1371ft 150kts
29-Dec-19 11:25 32.752728 -117.273625 286 3176ft 163kts
29-Dec-19 11:26 32.758183 -117.325745 235 5114ft 170kts
29-Dec-19 11:27 32.711538 -117.327745 171 6966ft 183kts
29-Dec-19 11:28 32.657148 -117.315709 148 8047ft 234kts
29-Dec-19 11:29 32.634737 -117.244828 101 9080ft 225kts
29-Dec-19 11:30 32.619069 -117.175561 101 10809ft 214kts
29-Dec-19 11:32 32.601788 -117.098833 101 11052ft 263kts
29-Dec-19 11:33 32.584034 -117.015738 101 12226ft 242kts
29-Dec-19 11:34 32.568895 -116.942031 101 14129ft 220kts
29-Dec-19 11:35 32.569105 -116.872701 32 15027ft 233kts
29-Dec-19 11:36 32.633037 -116.837415 18 15013ft 267kts
29-Dec-19 11:37 32.702782 -116.802892 18 15006ft 272kts
29-Dec-19 11:38 32.772938 -116.768265 18 15008ft 272kts
29-Dec-19 11:39 32.843570 -116.733350 18 15005ft 273kts
29-Dec-19 11:40 32.913816 -116.698567 18 14997ft 273kts
29-Dec-19 11:41 32.984382 -116.663561 18 14990ft 273kts
29-Dec-19 11:42 33.052529 -116.622295 29 14991ft 277kts
29-Dec-19 11:43 33.116897 -116.571178 29 14993ft 278kts
29-Dec-19 11:44 33.180644 -116.520260 29 15002ft 279kts
29-Dec-19 11:45 33.245189 -116.468601 29 15020ft 278kts
29-Dec-19 11:46 33.309532 -116.417011 29 15044ft 279kts
29-Dec-19 11:47 33.374181 -116.365080 29 15048ft 279kts
29-Dec-19 11:48 33.438249 -116.313521 29 15044ft 279kts
29-Dec-19 11:48 33.492526 -116.269783 30 14783ft 288kts
29-Dec-19 11:50 33.570129 -116.207088 30 13703ft 265kts
29-Dec-19 11:51 33.630410 -116.176987 327 12260ft 226kts
29-Dec-19 11:52 33.664353 -116.236933 301 10887ft 215kts
29-Dec-19 11:52 33.689923 -116.287522 301 9702ft 212kts
29-Dec-19 11:54 33.719295 -116.346322 303 7901ft 124kts
29-Dec-19 11:55 33.740573 -116.342001 122 6181ft 170kts
29-Dec-19 11:55 33.722154 -116.359110 303 4748ft 160kts
29-Dec-19 11:56 33.746414 -116.403326 303 4003ft 161kts
29-Dec-19 11:57 33.772240 -116.446290 309 2859ft 151kts
29-Dec-19 11:58 33.801830 -116.480120 323 1057ft 133kts
29-Dec-19 11:59 33.824993 -116.500635 321 426ft 76kts
29-Dec-19 12:00 33.830003 -116.504353 56 425ft 0kts
29-Dec-19 12:01 33.828156 -116.502478 144 425ft 19kts
29-Dec-19 12:02 33.823720 -116.498388 138 425ft 8kts
29-Dec-19 12:03 33.823682 -116.497816 59 425ft 0kts

Navigation Log

Ident Type
Flight plan parsing failed, navigation log unavailable